createdAt,value
2023-03-30T00:00:19.995Z,1002.61
2023-03-30T00:01:19.940Z,1002.60
2023-03-30T00:02:19.934Z,1002.56
2023-03-30T00:03:20.159Z,1002.57
2023-03-30T00:04:20.142Z,1002.52
2023-03-30T00:05:19.944Z,1002.53
2023-03-30T00:06:19.899Z,1002.54
2023-03-30T00:07:19.871Z,1002.55
2023-03-30T00:08:19.846Z,1002.56
2023-03-30T00:09:19.839Z,1002.55
2023-03-30T00:10:19.843Z,1002.50
2023-03-30T00:11:19.885Z,1002.54
2023-03-30T00:12:19.815Z,1002.57
2023-03-30T00:13:19.807Z,1002.58
2023-03-30T00:14:19.822Z,1002.56
2023-03-30T00:15:19.790Z,1002.58
2023-03-30T00:16:19.838Z,1002.63
2023-03-30T00:17:19.755Z,1002.55
2023-03-30T00:18:19.742Z,1002.53
2023-03-30T00:19:19.829Z,1002.48
2023-03-30T00:20:19.764Z,1002.47
2023-03-30T00:21:19.753Z,1002.46
2023-03-30T00:22:19.706Z,1002.43
2023-03-30T00:23:19.737Z,1002.41
2023-03-30T00:24:19.669Z,1002.46
2023-03-30T00:25:19.680Z,1002.42
2023-03-30T00:26:19.672Z,1002.47
2023-03-30T00:27:19.635Z,1002.41
2023-03-30T00:28:19.634Z,1002.44
2023-03-30T00:29:19.609Z,1002.44
2023-03-30T00:30:19.616Z,1002.40
2023-03-30T00:31:19.685Z,1002.39
2023-03-30T00:32:19.574Z,1002.38
2023-03-30T00:33:21.944Z,1002.39
2023-03-30T00:34:20.551Z,1002.35
2023-03-30T00:35:19.591Z,1002.36
2023-03-30T00:36:19.592Z,1002.39
2023-03-30T00:37:19.531Z,1002.38
2023-03-30T00:38:19.511Z,1002.44
2023-03-30T00:39:19.520Z,1002.48
2023-03-30T00:40:19.492Z,1002.48
2023-03-30T00:41:19.483Z,1002.46
2023-03-30T00:42:19.461Z,1002.51
2023-03-30T00:43:19.467Z,1002.49
2023-03-30T00:44:19.438Z,1002.47
2023-03-30T00:45:19.472Z,1002.47
2023-03-30T00:46:19.458Z,1002.42
2023-03-30T00:47:20.168Z,1002.41
2023-03-30T00:48:19.395Z,1002.32
2023-03-30T00:49:19.387Z,1002.31
2023-03-30T00:50:19.403Z,1002.31
2023-03-30T00:51:19.406Z,1002.31
2023-03-30T00:52:19.400Z,1002.27
2023-03-30T00:53:19.354Z,1002.24
2023-03-30T00:54:19.337Z,1002.12
2023-03-30T00:55:19.338Z,1002.08
2023-03-30T00:56:19.315Z,1002.00
2023-03-30T00:57:19.353Z,1001.99
2023-03-30T00:58:19.295Z,1001.99
2023-03-30T00:59:19.287Z,1002.00
2023-03-30T01:00:19.295Z,1002.01
2023-03-30T01:01:19.334Z,1002.02
2023-03-30T01:02:19.346Z,1001.96
2023-03-30T01:03:19.327Z,1002.00
2023-03-30T01:04:19.210Z,1002.01
2023-03-30T01:05:19.224Z,1002.00
2023-03-30T01:06:19.215Z,1002.03
2023-03-30T01:07:19.228Z,1001.99
2023-03-30T01:08:19.179Z,1002.01
2023-03-30T01:09:19.177Z,1002.01
2023-03-30T01:10:19.148Z,1001.93
2023-03-30T01:11:19.188Z,1001.96
2023-03-30T01:12:19.147Z,1001.98
2023-03-30T01:13:19.114Z,1002.04
2023-03-30T01:14:19.142Z,1001.95
2023-03-30T01:15:19.107Z,1001.98
2023-03-30T01:16:19.318Z,1001.97
2023-03-30T01:17:19.074Z,1001.96
2023-03-30T01:18:19.069Z,1001.98
2023-03-30T01:19:19.077Z,1002.02
2023-03-30T01:20:19.056Z,1002.06
2023-03-30T01:21:19.059Z,1002.09
2023-03-30T01:22:19.041Z,1002.04
2023-03-30T01:23:19.046Z,1002.07
2023-03-30T01:24:19.011Z,1002.07
2023-03-30T01:25:19.002Z,1002.08
2023-03-30T01:26:18.967Z,1002.11
2023-03-30T01:27:18.971Z,1002.08
2023-03-30T01:28:18.944Z,1002.03
2023-03-30T01:29:18.935Z,1002.06
2023-03-30T01:30:18.920Z,1002.06
2023-03-30T01:31:18.953Z,1002.07
2023-03-30T01:32:18.915Z,1002.07
2023-03-30T01:33:18.923Z,1002.09
2023-03-30T01:34:18.890Z,1002.08
2023-03-30T01:35:18.889Z,1002.04
2023-03-30T01:36:18.918Z,1002.04
2023-03-30T01:37:18.854Z,1002.01
2023-03-30T01:38:18.832Z,1002.06
2023-03-30T01:39:18.857Z,1002.03
2023-03-30T01:40:18.820Z,1002.04
2023-03-30T01:41:18.839Z,1001.96
2023-03-30T01:42:18.797Z,1001.97
2023-03-30T01:43:18.792Z,1001.90
2023-03-30T01:44:18.791Z,1001.90
2023-03-30T01:45:18.758Z,1001.87
2023-03-30T01:46:18.766Z,1001.92
2023-03-30T01:47:18.756Z,1001.89
2023-03-30T01:48:18.731Z,1001.91
2023-03-30T01:49:18.745Z,1001.90
2023-03-30T01:50:18.711Z,1001.88
2023-03-30T01:51:18.688Z,1001.81
2023-03-30T01:52:18.682Z,1001.89
2023-03-30T01:53:18.663Z,1001.95
2023-03-30T01:54:18.690Z,1002.01
2023-03-30T01:55:18.675Z,1002.02
2023-03-30T01:56:18.643Z,1002.00
2023-03-30T01:57:18.663Z,1002.06
2023-03-30T01:58:18.625Z,1002.03
2023-03-30T01:59:18.642Z,1002.09
2023-03-30T02:00:18.588Z,1002.15
2023-03-30T02:01:18.611Z,1002.12
2023-03-30T02:02:18.668Z,1002.02
2023-03-30T02:03:18.597Z,1002.02
2023-03-30T02:04:18.549Z,1002.03
2023-03-30T02:05:18.548Z,1001.98
2023-03-30T02:06:18.540Z,1002.02
2023-03-30T02:07:18.519Z,1002.01
2023-03-30T02:08:18.642Z,1001.97
2023-03-30T02:09:18.487Z,1001.93
2023-03-30T02:10:18.491Z,1001.87
2023-03-30T02:11:18.501Z,1001.82
2023-03-30T02:12:18.453Z,1001.79
2023-03-30T02:13:18.457Z,1001.70
2023-03-30T02:14:18.426Z,1001.66
2023-03-30T02:15:18.444Z,1001.76
2023-03-30T02:16:18.461Z,1001.73
2023-03-30T02:17:18.422Z,1001.78
2023-03-30T02:18:18.553Z,1001.76
2023-03-30T02:19:18.408Z,1001.75
2023-03-30T02:20:18.372Z,1001.86
2023-03-30T02:21:18.374Z,1001.82
2023-03-30T02:22:18.339Z,1001.75
2023-03-30T02:23:18.359Z,1001.67
2023-03-30T02:24:18.345Z,1001.65
2023-03-30T02:25:18.321Z,1001.66
2023-03-30T02:26:18.321Z,1001.58
2023-03-30T02:27:18.357Z,1001.54
2023-03-30T02:28:18.297Z,1001.56
2023-03-30T02:29:18.260Z,1001.58
2023-03-30T02:30:18.276Z,1001.59
2023-03-30T02:31:18.276Z,1001.54
2023-03-30T02:32:18.277Z,1001.52
2023-03-30T02:33:18.280Z,1001.54
2023-03-30T02:34:18.208Z,1001.48
2023-03-30T02:35:18.197Z,1001.44
2023-03-30T02:36:18.231Z,1001.42
2023-03-30T02:37:18.180Z,1001.30
2023-03-30T02:38:18.205Z,1001.18
2023-03-30T02:39:18.149Z,1001.00
2023-03-30T02:40:18.172Z,1000.79
2023-03-30T02:41:18.128Z,1000.81
2023-03-30T02:42:18.141Z,1000.75
2023-03-30T02:43:18.188Z,1000.86
2023-03-30T02:44:18.099Z,1000.77
2023-03-30T02:45:18.122Z,1000.65
2023-03-30T02:46:18.124Z,1000.68
2023-03-30T02:47:18.062Z,1000.71
2023-03-30T02:48:18.112Z,1000.80
2023-03-30T02:49:18.037Z,1000.82
2023-03-30T02:50:18.047Z,1000.85
2023-03-30T02:51:18.028Z,1000.84
2023-03-30T02:52:18.009Z,1000.83
2023-03-30T02:53:18.011Z,1000.82
2023-03-30T02:54:18.014Z,1000.72
2023-03-30T02:55:17.975Z,1000.73
2023-03-30T02:56:17.970Z,1000.72
2023-03-30T02:57:17.962Z,1000.80
2023-03-30T02:58:17.974Z,1000.89
2023-03-30T02:59:17.980Z,1000.87
2023-03-30T03:00:17.932Z,1000.86
2023-03-30T03:01:18.001Z,1000.80
2023-03-30T03:02:17.979Z,1000.77
2023-03-30T03:03:17.994Z,1000.76
2023-03-30T03:04:17.932Z,1000.70
2023-03-30T03:05:17.890Z,1000.70
2023-03-30T03:06:17.853Z,1000.71
2023-03-30T03:07:17.840Z,1000.73
2023-03-30T03:08:17.850Z,1000.73
2023-03-30T03:09:17.830Z,1000.78
2023-03-30T03:10:17.811Z,1000.73
2023-03-30T03:11:17.810Z,1000.73
2023-03-30T03:12:17.799Z,1000.72
2023-03-30T03:13:17.786Z,1000.77
2023-03-30T03:14:17.800Z,1000.79
2023-03-30T03:15:17.777Z,1000.79
2023-03-30T03:16:17.760Z,1000.76
2023-03-30T03:17:17.779Z,1000.74
2023-03-30T03:18:17.739Z,1000.79
2023-03-30T03:19:17.729Z,1000.77
2023-03-30T03:20:17.722Z,1000.74
2023-03-30T03:21:17.696Z,1000.76
2023-03-30T03:22:17.692Z,1000.78
2023-03-30T03:23:17.677Z,1000.76
2023-03-30T03:24:17.685Z,1000.72
2023-03-30T03:25:17.668Z,1000.67
2023-03-30T03:26:17.634Z,1000.61
2023-03-30T03:27:17.617Z,1000.62
2023-03-30T03:28:17.644Z,1000.67
2023-03-30T03:29:17.640Z,1000.70
2023-03-30T03:30:17.602Z,1000.74
2023-03-30T03:31:17.687Z,1000.77
2023-03-30T03:32:17.568Z,1000.73
2023-03-30T03:33:17.563Z,1000.77
2023-03-30T03:34:17.564Z,1000.80
2023-03-30T03:35:17.550Z,1000.76
2023-03-30T03:36:17.588Z,1000.73
2023-03-30T03:37:17.518Z,1000.73
2023-03-30T03:38:17.525Z,1000.76
2023-03-30T03:39:17.481Z,1000.76
2023-03-30T03:40:17.497Z,1000.74
2023-03-30T03:41:17.466Z,1000.78
2023-03-30T03:42:17.462Z,1000.79
2023-03-30T03:43:17.464Z,1000.83
2023-03-30T03:44:17.451Z,1000.85
2023-03-30T03:45:17.443Z,1000.81
2023-03-30T03:46:17.452Z,1000.81
2023-03-30T03:47:17.453Z,1000.84
2023-03-30T03:48:17.399Z,1000.77
2023-03-30T03:49:17.376Z,1000.78
2023-03-30T03:50:17.381Z,1000.80
2023-03-30T03:51:17.371Z,1000.79
2023-03-30T03:52:17.352Z,1000.80
2023-03-30T03:53:17.346Z,1000.79
2023-03-30T03:54:17.335Z,1000.77
2023-03-30T03:55:17.319Z,1000.77
2023-03-30T03:56:17.306Z,1000.77
2023-03-30T03:57:17.386Z,1000.64
2023-03-30T03:58:17.298Z,1000.55
2023-03-30T03:59:17.276Z,1000.52
2023-03-30T04:00:17.374Z,1000.62
2023-03-30T04:01:17.257Z,1000.64
2023-03-30T04:02:17.271Z,1000.59
2023-03-30T04:03:17.362Z,1000.56
2023-03-30T04:04:17.265Z,1000.58
2023-03-30T04:05:17.198Z,1000.54
2023-03-30T04:06:17.202Z,1000.51
2023-03-30T04:07:17.200Z,1000.47
2023-03-30T04:08:17.210Z,1000.45
2023-03-30T04:09:17.150Z,1000.47
2023-03-30T04:10:17.158Z,1000.49
2023-03-30T04:11:17.147Z,1000.50
2023-03-30T04:12:17.130Z,1000.49
2023-03-30T04:13:17.230Z,1000.42
2023-03-30T04:14:17.122Z,1000.43
2023-03-30T04:15:17.102Z,1000.44
2023-03-30T04:16:17.124Z,1000.38
2023-03-30T04:17:17.074Z,1000.40
2023-03-30T04:18:17.141Z,1000.40
2023-03-30T04:19:17.129Z,1000.36
2023-03-30T04:20:17.054Z,1000.33
2023-03-30T04:21:17.034Z,1000.35
2023-03-30T04:22:17.032Z,1000.32
2023-03-30T04:23:17.014Z,1000.38
2023-03-30T04:24:17.021Z,1000.33
2023-03-30T04:25:16.974Z,1000.33
2023-03-30T04:26:16.981Z,1000.36
2023-03-30T04:27:17.064Z,1000.36
2023-03-30T04:28:16.974Z,1000.33
2023-03-30T04:29:16.930Z,1000.39
2023-03-30T04:30:16.938Z,1000.42
2023-03-30T04:31:16.987Z,1000.42
2023-03-30T04:32:16.916Z,1000.44
2023-03-30T04:33:16.893Z,1000.47
2023-03-30T04:34:16.906Z,1000.45
2023-03-30T04:35:16.904Z,1000.40
2023-03-30T04:36:16.891Z,1000.40
2023-03-30T04:37:16.877Z,1000.42
2023-03-30T04:38:16.836Z,1000.46
2023-03-30T04:39:16.851Z,1000.47
2023-03-30T04:40:16.848Z,1000.46
2023-03-30T04:41:16.816Z,1000.47
2023-03-30T04:42:16.796Z,1000.45
2023-03-30T04:43:16.790Z,1000.48
2023-03-30T04:44:16.812Z,1000.47
2023-03-30T04:45:16.767Z,1000.47
2023-03-30T04:46:17.352Z,1000.54
2023-03-30T04:47:16.749Z,1000.51
2023-03-30T04:48:16.752Z,1000.47
2023-03-30T04:49:16.717Z,1000.48
2023-03-30T04:50:16.720Z,1000.43
2023-03-30T04:51:16.731Z,1000.43
2023-03-30T04:52:16.700Z,1000.44
2023-03-30T04:53:16.702Z,1000.40
2023-03-30T04:54:16.681Z,1000.36
2023-03-30T04:55:16.701Z,1000.44
2023-03-30T04:56:16.643Z,1000.38
2023-03-30T04:57:16.707Z,1000.38
2023-03-30T04:58:16.622Z,1000.33
2023-03-30T04:59:16.634Z,1000.32
2023-03-30T05:00:16.640Z,1000.32
2023-03-30T05:01:16.648Z,1000.36
2023-03-30T05:02:16.637Z,1000.42
2023-03-30T05:03:16.763Z,1000.42
2023-03-30T05:04:16.584Z,1000.44
2023-03-30T05:05:16.556Z,1000.46
2023-03-30T05:06:16.546Z,1000.45
2023-03-30T05:07:16.555Z,1000.40
2023-03-30T05:08:16.521Z,1000.45
2023-03-30T05:09:16.493Z,1000.45
2023-03-30T05:10:16.529Z,1000.43
2023-03-30T05:11:16.500Z,1000.48
2023-03-30T05:12:16.471Z,1000.40
2023-03-30T05:13:16.460Z,1000.46
2023-03-30T05:14:16.457Z,1000.46
2023-03-30T05:15:16.483Z,1000.50
2023-03-30T05:16:16.464Z,1000.52
2023-03-30T05:17:16.475Z,1000.54
2023-03-30T05:18:16.503Z,1000.53
2023-03-30T05:19:16.407Z,1000.59
2023-03-30T05:20:16.395Z,1000.56
2023-03-30T05:21:16.366Z,1000.59
2023-03-30T05:22:16.358Z,1000.63
2023-03-30T05:23:16.371Z,1000.57
2023-03-30T05:24:16.382Z,1000.58
2023-03-30T05:25:16.329Z,1000.63
2023-03-30T05:26:16.404Z,1000.66
2023-03-30T05:27:16.322Z,1000.64
2023-03-30T05:28:16.300Z,1000.64
2023-03-30T05:29:16.286Z,1000.62
2023-03-30T05:30:16.278Z,1000.61
2023-03-30T05:31:16.268Z,1000.61
2023-03-30T05:32:16.296Z,1000.57
2023-03-30T05:33:16.244Z,1000.57
2023-03-30T05:34:16.238Z,1000.62
2023-03-30T05:35:16.209Z,1000.63
2023-03-30T05:36:16.278Z,1000.61
2023-03-30T05:37:16.182Z,1000.65
2023-03-30T05:38:16.196Z,1000.68
2023-03-30T05:39:16.224Z,1000.71
2023-03-30T05:40:16.188Z,1000.72
2023-03-30T05:41:16.154Z,1000.73
2023-03-30T05:42:16.146Z,1000.75
2023-03-30T05:43:16.168Z,1000.79
2023-03-30T05:44:16.147Z,1000.74
2023-03-30T05:45:16.098Z,1000.75
2023-03-30T05:46:16.120Z,1000.73
2023-03-30T05:47:16.076Z,1000.77
2023-03-30T05:48:16.068Z,1000.79
2023-03-30T05:49:16.079Z,1000.88
2023-03-30T05:50:16.060Z,1000.91
2023-03-30T05:51:16.054Z,1001.01
2023-03-30T05:52:16.032Z,1000.85
2023-03-30T05:53:16.008Z,1000.84
2023-03-30T05:54:16.025Z,1000.88
2023-03-30T05:55:16.008Z,1000.89
2023-03-30T05:56:15.984Z,1000.90
2023-03-30T05:57:16.042Z,1000.87
2023-03-30T05:58:15.968Z,1000.88
2023-03-30T05:59:15.938Z,1000.84
2023-03-30T06:00:15.960Z,1000.88
2023-03-30T06:01:15.919Z,1000.92
2023-03-30T06:02:15.909Z,1000.93
2023-03-30T06:03:16.000Z,1000.91
2023-03-30T06:04:16.092Z,1000.92
2023-03-30T06:05:15.880Z,1000.92
2023-03-30T06:06:15.877Z,1000.92
2023-03-30T06:07:15.861Z,1000.95
2023-03-30T06:08:15.844Z,1000.95
2023-03-30T06:09:15.830Z,1000.97
2023-03-30T06:10:15.846Z,1000.92
2023-03-30T06:11:15.844Z,1000.91
2023-03-30T06:12:15.844Z,1000.93
2023-03-30T06:13:15.791Z,1000.93
2023-03-30T06:14:15.775Z,1000.95
2023-03-30T06:15:15.762Z,1000.99
2023-03-30T06:16:15.838Z,1000.93
2023-03-30T06:17:15.759Z,1000.96
2023-03-30T06:18:15.875Z,1000.88
2023-03-30T06:19:15.725Z,1000.90
2023-03-30T06:20:15.708Z,1000.88
2023-03-30T06:21:15.710Z,1000.91
2023-03-30T06:22:15.732Z,1000.88
2023-03-30T06:23:15.690Z,1000.90
2023-03-30T06:24:15.675Z,1000.87
2023-03-30T06:25:15.662Z,1000.90
2023-03-30T06:26:15.661Z,1000.91
2023-03-30T06:27:15.658Z,1000.97
2023-03-30T06:28:15.643Z,1001.02
2023-03-30T06:29:15.625Z,1001.07
2023-03-30T06:30:15.609Z,1001.08
2023-03-30T06:31:15.646Z,1001.05
2023-03-30T06:32:15.613Z,1001.06
2023-03-30T06:33:15.579Z,1001.02
2023-03-30T06:34:15.554Z,1001.04
2023-03-30T06:35:15.560Z,1001.10
2023-03-30T06:36:15.565Z,1001.09
2023-03-30T06:37:15.552Z,1001.07
2023-03-30T06:38:15.522Z,1001.05
2023-03-30T06:39:15.519Z,1001.05
2023-03-30T06:40:15.527Z,1001.05
2023-03-30T06:41:15.484Z,1001.04
2023-03-30T06:42:15.459Z,1001.10
2023-03-30T06:43:15.541Z,1001.11
2023-03-30T06:44:15.455Z,1001.19
2023-03-30T06:45:15.445Z,1001.19
2023-03-30T06:46:15.436Z,1001.23
2023-03-30T06:47:15.614Z,1001.24
2023-03-30T06:48:15.400Z,1001.22
2023-03-30T06:49:15.417Z,1001.21
2023-03-30T06:50:15.384Z,1001.15
2023-03-30T06:51:15.376Z,1001.16
2023-03-30T06:52:15.380Z,1001.16
2023-03-30T06:53:15.355Z,1001.16
2023-03-30T06:54:15.390Z,1001.07
2023-03-30T06:55:15.323Z,1001.16
2023-03-30T06:56:15.320Z,1001.19
2023-03-30T06:57:15.341Z,1001.17
2023-03-30T06:58:15.281Z,1001.20
2023-03-30T06:59:15.335Z,1001.14
2023-03-30T07:00:15.415Z,1001.11
2023-03-30T07:01:15.299Z,1001.14
2023-03-30T07:02:15.262Z,1001.15
2023-03-30T07:03:15.232Z,1001.14
2023-03-30T07:04:15.277Z,1001.09
2023-03-30T07:05:15.228Z,1001.06
2023-03-30T07:06:15.213Z,1001.10
2023-03-30T07:07:15.219Z,1001.08
2023-03-30T07:08:15.190Z,1001.10
2023-03-30T07:09:15.198Z,1001.07
2023-03-30T07:10:15.169Z,1001.12
2023-03-30T07:11:15.159Z,1001.02
2023-03-30T07:12:15.146Z,1001.07
2023-03-30T07:13:15.135Z,1001.06
2023-03-30T07:14:15.145Z,1001.09
2023-03-30T07:15:15.126Z,1001.04
2023-03-30T07:16:15.136Z,1001.12
2023-03-30T07:17:15.220Z,1001.12
2023-03-30T07:18:15.161Z,1001.17
2023-03-30T07:19:15.072Z,1001.21
2023-03-30T07:20:15.064Z,1001.12
2023-03-30T07:21:15.049Z,1001.17
2023-03-30T07:22:15.097Z,1001.17
2023-03-30T07:23:15.030Z,1001.14
2023-03-30T07:24:15.028Z,1001.11
2023-03-30T07:25:15.389Z,1001.15
2023-03-30T07:26:14.974Z,1001.11
2023-03-30T07:27:15.252Z,1001.13
2023-03-30T07:28:14.953Z,1001.09
2023-03-30T07:29:14.950Z,1001.11
2023-03-30T07:30:21.703Z,1001.14
2023-03-30T07:31:16.004Z,1001.08
2023-03-30T07:32:14.965Z,1001.01
2023-03-30T07:33:15.003Z,1000.99
2023-03-30T07:34:14.897Z,1001.04
2023-03-30T07:35:14.909Z,1001.03
2023-03-30T07:36:14.901Z,1001.12
2023-03-30T07:37:20.341Z,1001.10
2023-03-30T07:38:15.853Z,1001.14
2023-03-30T07:39:14.839Z,1001.21
2023-03-30T07:40:14.859Z,1001.25
2023-03-30T07:41:14.863Z,1001.29
2023-03-30T07:42:14.820Z,1001.22
2023-03-30T07:43:14.799Z,1001.21
2023-03-30T07:44:14.765Z,1001.25
2023-03-30T07:45:16.496Z,1001.30
2023-03-30T07:46:14.844Z,1001.32
2023-03-30T07:47:14.776Z,1001.32
2023-03-30T07:48:14.840Z,1001.40
2023-03-30T07:49:14.732Z,1001.35
2023-03-30T07:50:14.739Z,1001.36
2023-03-30T07:51:14.693Z,1001.39
2023-03-30T07:52:14.701Z,1001.37
2023-03-30T07:53:14.671Z,1001.36
2023-03-30T07:54:14.666Z,1001.40
2023-03-30T07:55:14.681Z,1001.42
2023-03-30T07:56:14.646Z,1001.41
2023-03-30T07:57:14.728Z,1001.35
2023-03-30T07:58:14.629Z,1001.39
2023-03-30T07:59:14.617Z,1001.37
2023-03-30T08:00:14.694Z,1001.35
2023-03-30T08:01:14.592Z,1001.27
2023-03-30T08:02:14.611Z,1001.29
2023-03-30T08:03:14.798Z,1001.29
2023-03-30T08:04:14.645Z,1001.32
2023-03-30T08:05:14.736Z,1001.37
2023-03-30T08:06:14.528Z,1001.39
2023-03-30T08:07:14.529Z,1001.39
2023-03-30T08:08:14.524Z,1001.41
2023-03-30T08:09:14.485Z,1001.37
2023-03-30T08:10:14.479Z,1001.42
2023-03-30T08:11:14.467Z,1001.40
2023-03-30T08:12:14.491Z,1001.48
2023-03-30T08:13:14.466Z,1001.41
2023-03-30T08:14:14.435Z,1001.47
2023-03-30T08:15:14.416Z,1001.44
2023-03-30T08:16:14.456Z,1001.42
2023-03-30T08:17:14.403Z,1001.46
2023-03-30T08:18:14.426Z,1001.49
2023-03-30T08:19:14.410Z,1001.52
2023-03-30T08:20:14.352Z,1001.49
2023-03-30T08:21:14.363Z,1001.49
2023-03-30T08:22:14.404Z,1001.53
2023-03-30T08:23:14.335Z,1001.47
2023-03-30T08:24:14.323Z,1001.50
2023-03-30T08:25:14.325Z,1001.48
2023-03-30T08:26:14.308Z,1001.54
2023-03-30T08:27:14.315Z,1001.47
2023-03-30T08:28:14.279Z,1001.53
2023-03-30T08:29:14.258Z,1001.57
2023-03-30T08:30:14.255Z,1001.47
2023-03-30T08:31:14.271Z,1001.52
2023-03-30T08:32:14.244Z,1001.59
2023-03-30T08:33:14.231Z,1001.53
2023-03-30T08:34:14.205Z,1001.56
2023-03-30T08:35:14.250Z,1001.55
2023-03-30T08:36:14.179Z,1001.57
2023-03-30T08:37:14.178Z,1001.57
2023-03-30T08:38:14.151Z,1001.59
2023-03-30T08:39:14.159Z,1001.63
2023-03-30T08:40:15.077Z,1001.64
2023-03-30T08:41:14.137Z,1001.60
2023-03-30T08:42:14.113Z,1001.57
2023-03-30T08:43:14.112Z,1001.58
2023-03-30T08:44:14.093Z,1001.52
2023-03-30T08:45:14.094Z,1001.59
2023-03-30T08:46:14.191Z,1001.57
2023-03-30T08:47:14.074Z,1001.60
2023-03-30T08:48:14.154Z,1001.54
2023-03-30T08:49:14.052Z,1001.64
2023-03-30T08:50:14.019Z,1001.62
2023-03-30T08:51:14.046Z,1001.64
2023-03-30T08:52:14.025Z,1001.66
2023-03-30T08:53:13.984Z,1001.62
2023-03-30T08:54:13.979Z,1001.57
2023-03-30T08:55:13.975Z,1001.59
2023-03-30T08:56:13.959Z,1001.55
2023-03-30T08:57:14.071Z,1001.56
2023-03-30T08:58:13.926Z,1001.55
2023-03-30T08:59:13.970Z,1001.51
2023-03-30T09:00:13.926Z,1001.64
2023-03-30T09:01:13.933Z,1001.52
2023-03-30T09:02:13.900Z,1001.54
2023-03-30T09:03:13.987Z,1001.46
2023-03-30T09:04:13.858Z,1001.43
2023-03-30T09:05:13.945Z,1001.64
2023-03-30T09:06:13.847Z,1001.64
2023-03-30T09:07:13.916Z,1001.45
2023-03-30T09:08:13.834Z,1001.56
2023-03-30T09:09:13.818Z,1001.51
2023-03-30T09:10:13.821Z,1001.64
2023-03-30T09:11:13.813Z,1001.62
2023-03-30T09:12:13.775Z,1001.54
2023-03-30T09:13:13.789Z,1001.47
2023-03-30T09:14:13.747Z,1001.61
2023-03-30T09:15:13.762Z,1001.71
2023-03-30T09:16:13.752Z,1001.69
2023-03-30T09:17:13.759Z,1001.72
2023-03-30T09:18:13.749Z,1001.73
2023-03-30T09:19:13.698Z,1001.78
2023-03-30T09:20:13.761Z,1001.78
2023-03-30T09:21:13.691Z,1001.85
2023-03-30T09:22:13.690Z,1001.95
2023-03-30T09:23:13.785Z,1001.87
2023-03-30T09:24:13.637Z,1001.91
2023-03-30T09:25:13.641Z,1001.90
2023-03-30T09:26:13.624Z,1001.98
2023-03-30T09:27:13.661Z,1001.99
2023-03-30T09:28:13.620Z,1002.06
2023-03-30T09:29:13.689Z,1002.04
2023-03-30T09:30:13.565Z,1002.11
2023-03-30T09:31:13.697Z,1002.09
2023-03-30T09:32:13.595Z,1002.03
2023-03-30T09:33:13.596Z,1002.07
2023-03-30T09:34:14.258Z,1002.13
2023-03-30T09:35:13.528Z,1002.15
2023-03-30T09:36:13.619Z,1002.16
2023-03-30T09:37:13.517Z,1002.09
2023-03-30T09:38:13.499Z,1002.06
2023-03-30T09:39:13.506Z,1002.14
2023-03-30T09:40:13.450Z,1002.29
2023-03-30T09:41:13.478Z,1002.39
2023-03-30T09:42:13.501Z,1002.41
2023-03-30T09:43:13.436Z,1002.82
2023-03-30T09:44:13.414Z,1002.77
2023-03-30T09:45:13.532Z,1002.92
2023-03-30T09:46:13.430Z,1003.05
2023-03-30T09:47:13.423Z,1002.91
2023-03-30T09:48:13.408Z,1003.03
2023-03-30T09:49:13.396Z,1003.10
2023-03-30T09:50:13.346Z,1002.88
2023-03-30T09:51:13.335Z,1002.89
2023-03-30T09:52:13.316Z,1003.26
2023-03-30T09:53:13.324Z,1003.20
2023-03-30T09:54:13.308Z,1003.32
2023-03-30T09:55:13.366Z,1003.34
2023-03-30T09:56:13.282Z,1003.45
2023-03-30T09:57:13.286Z,1003.56
2023-03-30T09:58:13.269Z,1003.51
2023-03-30T09:59:13.257Z,1003.71
2023-03-30T10:00:13.239Z,1003.68
2023-03-30T10:01:13.299Z,1003.71
2023-03-30T10:02:13.420Z,1003.80
2023-03-30T10:03:13.539Z,1003.79
2023-03-30T10:04:13.345Z,1003.87
2023-03-30T10:05:13.190Z,1003.80
2023-03-30T10:06:13.405Z,1003.77
2023-03-30T10:07:18.837Z,1003.74
2023-03-30T10:08:14.176Z,1003.74
2023-03-30T10:09:13.130Z,1003.74
2023-03-30T10:10:13.139Z,1003.63
2023-03-30T10:11:13.155Z,1003.64
2023-03-30T10:12:13.095Z,1003.63
2023-03-30T10:13:13.106Z,1003.59
2023-03-30T10:14:13.091Z,1003.58
2023-03-30T10:15:13.088Z,1003.50
2023-03-30T10:16:13.133Z,1003.49
2023-03-30T10:17:13.042Z,1003.46
2023-03-30T10:18:13.128Z,1003.17
2023-03-30T10:19:13.025Z,1003.07
2023-03-30T10:20:14.256Z,1003.07
2023-03-30T10:21:13.005Z,1003.18
2023-03-30T10:22:12.994Z,1003.25
2023-03-30T10:23:12.976Z,1003.20
2023-03-30T10:24:12.993Z,1003.06
2023-03-30T10:25:12.974Z,1002.94
2023-03-30T10:26:13.200Z,1002.79
2023-03-30T10:27:12.965Z,1002.74
2023-03-30T10:28:12.929Z,1002.82
2023-03-30T10:29:12.907Z,1002.96
2023-03-30T10:30:12.904Z,1003.11
2023-03-30T10:31:12.949Z,1003.21
2023-03-30T10:32:12.882Z,1003.25
2023-03-30T10:33:12.879Z,1003.32
2023-03-30T10:34:12.858Z,1003.28
2023-03-30T10:35:12.852Z,1003.29
2023-03-30T10:36:12.886Z,1003.28
2023-03-30T10:37:12.837Z,1003.24
2023-03-30T10:38:12.809Z,1003.28
2023-03-30T10:39:12.809Z,1003.18
2023-03-30T10:40:12.801Z,1003.25
2023-03-30T10:41:12.803Z,1003.17
2023-03-30T10:42:12.762Z,1003.13
2023-03-30T10:43:12.821Z,1003.16
2023-03-30T10:44:12.746Z,1003.21
2023-03-30T10:45:12.732Z,1003.22
2023-03-30T10:46:18.848Z,1003.28
2023-03-30T10:47:13.797Z,1003.32
2023-03-30T10:48:12.756Z,1003.25
2023-03-30T10:49:12.688Z,1003.33
2023-03-30T10:50:12.723Z,1003.28
2023-03-30T10:51:12.789Z,1003.26
2023-03-30T10:52:12.652Z,1003.25
2023-03-30T10:53:12.708Z,1003.24
2023-03-30T10:54:12.639Z,1003.16
2023-03-30T10:55:12.613Z,1003.16
2023-03-30T10:56:12.634Z,1003.16
2023-03-30T10:57:12.917Z,1003.24
2023-03-30T10:58:12.658Z,1003.25
2023-03-30T10:59:12.586Z,1003.24
2023-03-30T11:00:12.568Z,1003.28
2023-03-30T11:01:12.626Z,1003.25
2023-03-30T11:02:12.549Z,1003.21
2023-03-30T11:03:12.701Z,1003.22
2023-03-30T11:04:22.442Z,1003.28
2023-03-30T11:05:13.549Z,1003.24
2023-03-30T11:06:12.507Z,1003.31
2023-03-30T11:07:12.494Z,1003.30
2023-03-30T11:08:12.484Z,1003.29
2023-03-30T11:09:12.464Z,1003.37
2023-03-30T11:10:12.449Z,1003.34
2023-03-30T11:11:12.437Z,1003.37
2023-03-30T11:12:12.456Z,1003.41
2023-03-30T11:13:12.426Z,1003.37
2023-03-30T11:14:12.416Z,1003.34
2023-03-30T11:15:12.442Z,1003.32
2023-03-30T11:16:12.404Z,1003.37
2023-03-30T11:17:12.453Z,1003.29
2023-03-30T11:18:12.493Z,1003.32
2023-03-30T11:19:12.411Z,1003.41
2023-03-30T11:20:12.347Z,1003.36
2023-03-30T11:21:12.345Z,1003.30
2023-03-30T11:22:12.348Z,1003.32
2023-03-30T11:23:12.323Z,1003.36
2023-03-30T11:24:12.296Z,1003.34
2023-03-30T11:25:12.324Z,1003.44
2023-03-30T11:26:12.313Z,1003.43
2023-03-30T11:27:12.304Z,1003.41
2023-03-30T11:28:12.260Z,1003.41
2023-03-30T11:29:12.224Z,1003.39
2023-03-30T11:30:12.253Z,1003.43
2023-03-30T11:31:12.225Z,1003.40
2023-03-30T11:32:12.260Z,1003.42
2023-03-30T11:33:12.294Z,1003.43
2023-03-30T11:34:12.200Z,1003.41
2023-03-30T11:35:12.171Z,1003.47
2023-03-30T11:36:12.204Z,1003.50
2023-03-30T11:37:12.158Z,1003.47
2023-03-30T11:38:12.166Z,1003.51
2023-03-30T11:39:25.043Z,1003.51
2023-03-30T11:40:13.118Z,1003.53
2023-03-30T11:41:12.118Z,1003.49
2023-03-30T11:42:12.099Z,1003.51
2023-03-30T11:43:12.089Z,1003.55
2023-03-30T11:44:12.092Z,1003.47
2023-03-30T11:45:12.063Z,1003.44
2023-03-30T11:46:12.104Z,1003.48
2023-03-30T11:47:12.093Z,1003.40
2023-03-30T11:48:12.070Z,1003.47
2023-03-30T11:49:13.427Z,1003.45
2023-03-30T11:50:12.039Z,1003.38
2023-03-30T11:51:12.001Z,1003.45
2023-03-30T11:52:11.991Z,1003.42
2023-03-30T11:53:11.984Z,1003.41
2023-03-30T11:54:11.971Z,1003.43
2023-03-30T11:55:11.964Z,1003.37
2023-03-30T11:56:11.951Z,1003.44
2023-03-30T11:57:11.996Z,1003.37
2023-03-30T11:58:11.924Z,1003.47
2023-03-30T11:59:11.948Z,1003.36
2023-03-30T12:00:11.892Z,1003.39
2023-03-30T12:01:11.892Z,1003.35
2023-03-30T12:02:11.930Z,1003.37
2023-03-30T12:03:11.966Z,1003.42
2023-03-30T12:04:11.982Z,1003.33
2023-03-30T12:05:11.886Z,1003.40